Nearby METAR Reports

 

KTOP - Billard Municipal Airport, Topeka, Kansas, USA
Updated: 08/20/2018 2:53pm
Overcast
Overcast
 Wind from WNW
Wind: WNW 18 mph , 30 km/h, Gust: 33 mph , 54 km/h
Temperature: 72°F , 22°C
Dew Point: 64°F , 18°C
Humidity: 78%
Barometer: 1009.5 hPa
Clouds: Overcast
Visibility: 10 miles , 16 km
Cloud details: Few Clouds 2800 ft
Mostly cloudy 5000 ft
Overcast 5500 ft
2018/08/20 19:53 KTOP 201953Z 29016G29KT 10SM FEW028 BKN050 OVC055 22/18 A2981 RMK AO2 PK WND 29034/1940 RAE28 SLP087 P0000 T02220183
KFOE - Forbes Field Airport, Topeka, Kansas, USA
Updated: 08/20/2018 2:53pm
Overcast
Overcast
 Wind from WNW
Wind: WNW 28 mph , 44 km/h, Gust: 40 mph , 65 km/h
Temperature: 73°F , 23°C
Dew Point: 64°F , 18°C
Humidity: 74%
Barometer: 1009.8 hPa
Clouds: Overcast
Visibility: 10 miles , 16 km
Cloud details: Few Clouds 2500 ft
Partly cloudy 5500 ft
Overcast 7000 ft
2018/08/20 19:53 KFOE 201953Z 30024G35KT 10SM FEW025 SCT055 OVC070 23/18 A2982 RMK AO2 PK WND 29035/1951 RAB18E37 SLP089 P0000 T02330183